sensor_id;sensor_type;location;lat;lon;timestamp;temperature;humidity
25877;DHT22;13692;47.480;19.216;2022-12-18T00:01:21;0.40;99.90
25877;DHT22;13692;47.480;19.216;2022-12-18T00:03:48;0.40;99.90
25877;DHT22;13692;47.480;19.216;2022-12-18T00:06:16;0.40;99.90
25877;DHT22;13692;47.480;19.216;2022-12-18T00:08:44;0.40;99.90
25877;DHT22;13692;47.480;19.216;2022-12-18T00:11:14;0.50;99.90
25877;DHT22;13692;47.480;19.216;2022-12-18T00:13:41;0.50;99.90
25877;DHT22;13692;47.480;19.216;2022-12-18T00:16:14;0.50;99.90
25877;DHT22;13692;47.480;19.216;2022-12-18T00:18:42;0.50;99.90
25877;DHT22;13692;47.480;19.216;2022-12-18T00:21:11;0.50;99.90
25877;DHT22;13692;47.480;19.216;2022-12-18T00:23:40;0.50;99.90
25877;DHT22;13692;47.480;19.216;2022-12-18T00:26:12;0.50;99.90
25877;DHT22;13692;47.480;19.216;2022-12-18T00:28:39;0.50;99.90
25877;DHT22;13692;47.480;19.216;2022-12-18T00:31:08;0.50;99.90
25877;DHT22;13692;47.480;19.216;2022-12-18T00:33:37;0.50;99.90
25877;DHT22;13692;47.480;19.216;2022-12-18T00:36:14;0.50;99.90
25877;DHT22;13692;47.480;19.216;2022-12-18T00:38:41;0.50;99.90
25877;DHT22;13692;47.480;19.216;2022-12-18T00:41:10;0.50;99.90
25877;DHT22;13692;47.480;19.216;2022-12-18T00:43:37;0.50;99.90
25877;DHT22;13692;47.480;19.216;2022-12-18T00:46:05;0.50;99.90
25877;DHT22;13692;47.480;19.216;2022-12-18T00:48:33;0.50;99.90
25877;DHT22;13692;47.480;19.216;2022-12-18T00:50:59;0.50;99.90
25877;DHT22;13692;47.480;19.216;2022-12-18T00:53:26;0.60;99.90
25877;DHT22;13692;47.480;19.216;2022-12-18T00:55:53;0.60;99.90
25877;DHT22;13692;47.480;19.216;2022-12-18T00:58:20;0.50;99.90
25877;DHT22;13692;47.480;19.216;2022-12-18T01:00:47;0.50;99.90
25877;DHT22;13692;47.480;19.216;2022-12-18T01:03:14;0.60;99.90
25877;DHT22;13692;47.480;19.216;2022-12-18T01:05:42;0.50;99.90
25877;DHT22;13692;47.480;19.216;2022-12-18T01:08:09;0.50;99.90
25877;DHT22;13692;47.480;19.216;2022-12-18T01:10:36;0.50;99.90
25877;DHT22;13692;47.480;19.216;2022-12-18T01:13:06;0.50;99.90
25877;DHT22;13692;47.480;19.216;2022-12-18T01:15:33;0.50;99.90
25877;DHT22;13692;47.480;19.216;2022-12-18T01:18:00;0.50;99.90
25877;DHT22;13692;47.480;19.216;2022-12-18T01:20:27;0.50;99.90
25877;DHT22;13692;47.480;19.216;2022-12-18T01:22:54;0.50;99.90
25877;DHT22;13692;47.480;19.216;2022-12-18T01:25:21;0.50;99.90
25877;DHT22;13692;47.480;19.216;2022-12-18T01:27:48;0.50;99.90
25877;DHT22;13692;47.480;19.216;2022-12-18T01:30:15;0.60;99.90
25877;DHT22;13692;47.480;19.216;2022-12-18T01:32:41;0.60;99.90
25877;DHT22;13692;47.480;19.216;2022-12-18T01:35:08;0.60;99.90
25877;DHT22;13692;47.480;19.216;2022-12-18T01:37:35;0.50;99.90
25877;DHT22;13692;47.480;19.216;2022-12-18T01:40:03;0.50;99.90
25877;DHT22;13692;47.480;19.216;2022-12-18T01:42:30;0.50;99.90
25877;DHT22;13692;47.480;19.216;2022-12-18T01:53:17;0.50;99.90
25877;DHT22;13692;47.480;19.216;2022-12-18T01:55:49;0.50;99.90
25877;DHT22;13692;47.480;19.216;2022-12-18T01:58:17;0.50;99.90
25877;DHT22;13692;47.480;19.216;2022-12-18T02:00:45;0.50;99.90
25877;DHT22;13692;47.480;19.216;2022-12-18T02:03:12;0.50;99.90
25877;DHT22;13692;47.480;19.216;2022-12-18T02:05:47;0.50;99.90
25877;DHT22;13692;47.480;19.216;2022-12-18T02:11:06;0.50;99.90
25877;DHT22;13692;47.480;19.216;2022-12-18T02:16:24;0.50;99.90
25877;DHT22;13692;47.480;19.216;2022-12-18T02:18:59;0.40;99.90
25877;DHT22;13692;47.480;19.216;2022-12-18T02:24:37;0.50;99.90
25877;DHT22;13692;47.480;19.216;2022-12-18T02:27:09;0.40;99.90
25877;DHT22;13692;47.480;19.216;2022-12-18T02:29:38;0.40;99.90
25877;DHT22;13692;47.480;19.216;2022-12-18T02:32:10;0.50;99.90
25877;DHT22;13692;47.480;19.216;2022-12-18T02:34:39;0.50;99.90
25877;DHT22;13692;47.480;19.216;2022-12-18T02:37:10;0.40;99.90
25877;DHT22;13692;47.480;19.216;2022-12-18T02:39:41;0.40;99.90
25877;DHT22;13692;47.480;19.216;2022-12-18T02:42:09;0.50;99.90
25877;DHT22;13692;47.480;19.216;2022-12-18T02:44:44;0.50;99.90
25877;DHT22;13692;47.480;19.216;2022-12-18T02:47:13;0.50;99.90
25877;DHT22;13692;47.480;19.216;2022-12-18T03:00:31;0.30;99.90
25877;DHT22;13692;47.480;19.216;2022-12-18T03:05:46;0.20;99.90
25877;DHT22;13692;47.480;19.216;2022-12-18T03:08:21;0.20;99.90
25877;DHT22;13692;47.480;19.216;2022-12-18T03:10:58;0.20;99.90
25877;DHT22;13692;47.480;19.216;2022-12-18T03:13:34;0.10;99.90
25877;DHT22;13692;47.480;19.216;2022-12-18T03:16:06;0.10;99.90
25877;DHT22;13692;47.480;19.216;2022-12-18T03:18:45;0.10;99.90
25877;DHT22;13692;47.480;19.216;2022-12-18T03:21:14;0.00;99.90
25877;DHT22;13692;47.480;19.216;2022-12-18T03:23:47;-0.10;99.90
25877;DHT22;13692;47.480;19.216;2022-12-18T03:26:19;-0.20;99.90
25877;DHT22;13692;47.480;19.216;2022-12-18T03:28:56;-0.20;99.90
25877;DHT22;13692;47.480;19.216;2022-12-18T03:31:26;-0.30;99.90
25877;DHT22;13692;47.480;19.216;2022-12-18T03:34:09;-0.30;99.90
25877;DHT22;13692;47.480;19.216;2022-12-18T03:36:36;-0.30;99.90
25877;DHT22;13692;47.480;19.216;2022-12-18T03:39:03;-0.40;99.90
25877;DHT22;13692;47.480;19.216;2022-12-18T03:42:39;-0.40;99.90
25877;DHT22;13692;47.480;19.216;2022-12-18T03:44:58;-0.40;99.90
25877;DHT22;13692;47.480;19.216;2022-12-18T03:47:36;-0.50;99.90
25877;DHT22;13692;47.480;19.216;2022-12-18T03:55:44;-0.70;99.90
25877;DHT22;13692;47.480;19.216;2022-12-18T03:58:16;-0.70;99.90
25877;DHT22;13692;47.480;19.216;2022-12-18T04:00:44;-0.70;99.90
25877;DHT22;13692;47.480;19.216;2022-12-18T04:03:13;-0.70;99.90
25877;DHT22;13692;47.480;19.216;2022-12-18T04:05:43;-0.80;99.90
25877;DHT22;13692;47.480;19.216;2022-12-18T04:08:10;-0.80;99.90
25877;DHT22;13692;47.480;19.216;2022-12-18T04:10:37;-0.90;99.90
25877;DHT22;13692;47.480;19.216;2022-12-18T04:13:04;-0.90;99.90
25877;DHT22;13692;47.480;19.216;2022-12-18T04:15:34;-0.90;99.90
25877;DHT22;13692;47.480;19.216;2022-12-18T04:18:03;-0.90;99.90
25877;DHT22;13692;47.480;19.216;2022-12-18T04:20:30;-1.00;99.90
25877;DHT22;13692;47.480;19.216;2022-12-18T04:22:57;-1.00;99.90
25877;DHT22;13692;47.480;19.216;2022-12-18T04:25:24;-1.00;99.90
25877;DHT22;13692;47.480;19.216;2022-12-18T04:27:51;-1.00;99.90
25877;DHT22;13692;47.480;19.216;2022-12-18T04:30:18;-1.10;99.90
25877;DHT22;13692;47.480;19.216;2022-12-18T04:32:44;-1.10;99.90
25877;DHT22;13692;47.480;19.216;2022-12-18T04:35:17;-1.10;99.90
25877;DHT22;13692;47.480;19.216;2022-12-18T04:37:44;-1.10;99.90
25877;DHT22;13692;47.480;19.216;2022-12-18T04:40:11;-1.10;99.90
25877;DHT22;13692;47.480;19.216;2022-12-18T04:42:39;-1.20;99.90
25877;DHT22;13692;47.480;19.216;2022-12-18T04:45:07;-1.20;99.90
25877;DHT22;13692;47.480;19.216;2022-12-18T04:47:34;-1.20;99.90
25877;DHT22;13692;47.480;19.216;2022-12-18T04:50:01;-1.20;99.90
25877;DHT22;13692;47.480;19.216;2022-12-18T04:52:28;-1.30;99.90
25877;DHT22;13692;47.480;19.216;2022-12-18T04:54:55;-1.30;99.90
25877;DHT22;13692;47.480;19.216;2022-12-18T04:57:22;-1.30;99.90
25877;DHT22;13692;47.480;19.216;2022-12-18T04:59:49;-1.60;99.90
25877;DHT22;13692;47.480;19.216;2022-12-18T05:02:16;-1.40;99.90
25877;DHT22;13692;47.480;19.216;2022-12-18T05:04:43;-1.50;99.90
25877;DHT22;13692;47.480;19.216;2022-12-18T05:07:09;-1.50;99.90
25877;DHT22;13692;47.480;19.216;2022-12-18T05:09:36;-1.50;99.90
25877;DHT22;13692;47.480;19.216;2022-12-18T05:12:03;-1.50;99.90
25877;DHT22;13692;47.480;19.216;2022-12-18T05:14:30;-1.50;99.90
25877;DHT22;13692;47.480;19.216;2022-12-18T05:16:57;-1.50;99.90
25877;DHT22;13692;47.480;19.216;2022-12-18T05:19:26;-1.60;99.90
25877;DHT22;13692;47.480;19.216;2022-12-18T05:21:53;-1.70;99.90
25877;DHT22;13692;47.480;19.216;2022-12-18T05:24:21;-1.70;99.90
25877;DHT22;13692;47.480;19.216;2022-12-18T05:26:47;-1.80;99.90
25877;DHT22;13692;47.480;19.216;2022-12-18T05:29:14;-1.80;99.90
25877;DHT22;13692;47.480;19.216;2022-12-18T05:31:41;-1.90;99.90
25877;DHT22;13692;47.480;19.216;2022-12-18T05:34:09;-1.80;99.90
25877;DHT22;13692;47.480;19.216;2022-12-18T05:36:36;-1.90;99.90
25877;DHT22;13692;47.480;19.216;2022-12-18T05:39:03;-1.80;99.90
25877;DHT22;13692;47.480;19.216;2022-12-18T05:41:31;-1.80;99.90
25877;DHT22;13692;47.480;19.216;2022-12-18T05:43:58;-1.90;99.90
25877;DHT22;13692;47.480;19.216;2022-12-18T05:46:26;-1.90;99.90
25877;DHT22;13692;47.480;19.216;2022-12-18T05:48:53;-1.90;99.90
25877;DHT22;13692;47.480;19.216;2022-12-18T05:51:21;-1.90;99.90
25877;DHT22;13692;47.480;19.216;2022-12-18T05:53:48;-2.00;99.90
25877;DHT22;13692;47.480;19.216;2022-12-18T05:56:22;-2.00;99.90
25877;DHT22;13692;47.480;19.216;2022-12-18T05:58:53;-2.00;99.90
25877;DHT22;13692;47.480;19.216;2022-12-18T06:01:24;-2.10;99.90
25877;DHT22;13692;47.480;19.216;2022-12-18T06:03:51;-2.00;99.90
25877;DHT22;13692;47.480;19.216;2022-12-18T06:06:22;-2.00;99.90
25877;DHT22;13692;47.480;19.216;2022-12-18T06:08:50;-2.00;99.90
25877;DHT22;13692;47.480;19.216;2022-12-18T06:11:20;-2.10;99.90
25877;DHT22;13692;47.480;19.216;2022-12-18T06:13:50;-2.20;99.90
25877;DHT22;13692;47.480;19.216;2022-12-18T06:16:24;-2.20;99.90
25877;DHT22;13692;47.480;19.216;2022-12-18T06:18:51;-2.20;99.90
25877;DHT22;13692;47.480;19.216;2022-12-18T06:21:18;-2.20;99.90
25877;DHT22;13692;47.480;19.216;2022-12-18T06:23:45;-2.20;99.90
25877;DHT22;13692;47.480;19.216;2022-12-18T06:26:13;-2.30;99.90
25877;DHT22;13692;47.480;19.216;2022-12-18T06:28:41;-2.30;99.90
25877;DHT22;13692;47.480;19.216;2022-12-18T06:31:08;-2.30;99.90
25877;DHT22;13692;47.480;19.216;2022-12-18T06:33:36;-2.30;99.90
25877;DHT22;13692;47.480;19.216;2022-12-18T06:36:10;-2.30;99.90
25877;DHT22;13692;47.480;19.216;2022-12-18T06:38:41;-2.30;99.90
25877;DHT22;13692;47.480;19.216;2022-12-18T06:41:09;-2.50;99.90
25877;DHT22;13692;47.480;19.216;2022-12-18T06:43:36;-2.50;99.90
25877;DHT22;13692;47.480;19.216;2022-12-18T06:46:05;-2.50;99.90
25877;DHT22;13692;47.480;19.216;2022-12-18T06:48:33;-2.50;99.90
25877;DHT22;13692;47.480;19.216;2022-12-18T06:51:00;-2.40;99.90
25877;DHT22;13692;47.480;19.216;2022-12-18T06:53:28;-2.40;99.90
25877;DHT22;13692;47.480;19.216;2022-12-18T06:56:06;-2.30;99.90
25877;DHT22;13692;47.480;19.216;2022-12-18T06:58:37;-2.20;99.90
25877;DHT22;13692;47.480;19.216;2022-12-18T07:01:06;-2.20;99.90
25877;DHT22;13692;47.480;19.216;2022-12-18T07:03:34;-2.30;99.90
25877;DHT22;13692;47.480;19.216;2022-12-18T07:06:01;-2.20;99.90
25877;DHT22;13692;47.480;19.216;2022-12-18T07:08:29;-2.10;99.90
25877;DHT22;13692;47.480;19.216;2022-12-18T07:10:56;-2.10;99.90
25877;DHT22;13692;47.480;19.216;2022-12-18T07:13:23;-1.90;99.90
25877;DHT22;13692;47.480;19.216;2022-12-18T07:15:50;-1.80;99.90
25877;DHT22;13692;47.480;19.216;2022-12-18T07:18:17;-1.70;99.90
25877;DHT22;13692;47.480;19.216;2022-12-18T07:20:45;-1.50;99.90
25877;DHT22;13692;47.480;19.216;2022-12-18T07:23:13;-1.40;99.90
25877;DHT22;13692;47.480;19.216;2022-12-18T07:25:40;-1.30;99.90
25877;DHT22;13692;47.480;19.216;2022-12-18T07:28:07;-1.20;99.90
25877;DHT22;13692;47.480;19.216;2022-12-18T07:30:41;-1.10;99.90
25877;DHT22;13692;47.480;19.216;2022-12-18T07:33:08;-1.00;99.90
25877;DHT22;13692;47.480;19.216;2022-12-18T07:35:37;-0.90;99.90
25877;DHT22;13692;47.480;19.216;2022-12-18T07:38:04;-0.80;99.90
25877;DHT22;13692;47.480;19.216;2022-12-18T07:40:31;-0.70;99.90
25877;DHT22;13692;47.480;19.216;2022-12-18T07:42:58;-0.70;99.90
25877;DHT22;13692;47.480;19.216;2022-12-18T07:45:25;-0.50;99.90
25877;DHT22;13692;47.480;19.216;2022-12-18T07:47:52;-0.40;99.90
25877;DHT22;13692;47.480;19.216;2022-12-18T07:50:19;-0.30;99.90
25877;DHT22;13692;47.480;19.216;2022-12-18T07:52:46;-0.20;99.90
25877;DHT22;13692;47.480;19.216;2022-12-18T07:55:13;0.00;99.90
25877;DHT22;13692;47.480;19.216;2022-12-18T07:57:40;0.10;99.90
25877;DHT22;13692;47.480;19.216;2022-12-18T08:00:17;0.20;99.90
25877;DHT22;13692;47.480;19.216;2022-12-18T08:02:44;0.30;99.90
25877;DHT22;13692;47.480;19.216;2022-12-18T08:05:11;0.50;99.90
25877;DHT22;13692;47.480;19.216;2022-12-18T08:07:38;0.50;99.90
25877;DHT22;13692;47.480;19.216;2022-12-18T08:10:06;0.70;99.90
25877;DHT22;13692;47.480;19.216;2022-12-18T08:12:33;0.90;99.90
25877;DHT22;13692;47.480;19.216;2022-12-18T08:15:00;1.20;99.90
25877;DHT22;13692;47.480;19.216;2022-12-18T08:17:27;1.40;99.90
25877;DHT22;13692;47.480;19.216;2022-12-18T08:19:54;1.80;99.90
25877;DHT22;13692;47.480;19.216;2022-12-18T08:22:21;2.10;99.90
25877;DHT22;13692;47.480;19.216;2022-12-18T08:24:48;2.40;99.90
25877;DHT22;13692;47.480;19.216;2022-12-18T08:27:15;2.70;99.90
25877;DHT22;13692;47.480;19.216;2022-12-18T08:29:57;2.80;99.90
25877;DHT22;13692;47.480;19.216;2022-12-18T08:32:26;3.00;99.90
25877;DHT22;13692;47.480;19.216;2022-12-18T08:34:53;3.30;99.90
25877;DHT22;13692;47.480;19.216;2022-12-18T08:37:21;3.50;99.90
25877;DHT22;13692;47.480;19.216;2022-12-18T08:39:49;3.70;99.90
25877;DHT22;13692;47.480;19.216;2022-12-18T08:42:16;3.80;99.90
25877;DHT22;13692;47.480;19.216;2022-12-18T08:45:02;4.00;99.90
25877;DHT22;13692;47.480;19.216;2022-12-18T08:47:29;4.20;99.90
25877;DHT22;13692;47.480;19.216;2022-12-18T08:49:56;4.30;99.90
25877;DHT22;13692;47.480;19.216;2022-12-18T08:52:23;4.30;99.90
25877;DHT22;13692;47.480;19.216;2022-12-18T08:54:50;4.40;99.90
25877;DHT22;13692;47.480;19.216;2022-12-18T08:57:16;4.50;99.90
25877;DHT22;13692;47.480;19.216;2022-12-18T08:59:43;4.70;99.90
25877;DHT22;13692;47.480;19.216;2022-12-18T09:02:11;4.90;99.90
25877;DHT22;13692;47.480;19.216;2022-12-18T09:04:38;5.10;99.90
25877;DHT22;13692;47.480;19.216;2022-12-18T09:07:06;5.30;99.90
25877;DHT22;13692;47.480;19.216;2022-12-18T09:09:33;5.50;99.90
25877;DHT22;13692;47.480;19.216;2022-12-18T09:12:00;5.60;99.90
25877;DHT22;13692;47.480;19.216;2022-12-18T09:14:27;5.80;99.90
25877;DHT22;13692;47.480;19.216;2022-12-18T09:16:54;5.80;99.90
25877;DHT22;13692;47.480;19.216;2022-12-18T09:19:21;5.80;99.90
25877;DHT22;13692;47.480;19.216;2022-12-18T09:21:48;5.90;99.90
25877;DHT22;13692;47.480;19.216;2022-12-18T09:24:16;5.90;99.90
25877;DHT22;13692;47.480;19.216;2022-12-18T09:26:43;5.90;99.90
25877;DHT22;13692;47.480;19.216;2022-12-18T09:29:13;6.20;99.90
25877;DHT22;13692;47.480;19.216;2022-12-18T09:31:42;6.40;99.90
25877;DHT22;13692;47.480;19.216;2022-12-18T09:34:09;6.20;99.90
25877;DHT22;13692;47.480;19.216;2022-12-18T09:36:36;6.10;99.90
25877;DHT22;13692;47.480;19.216;2022-12-18T09:39:03;6.20;99.90
25877;DHT22;13692;47.480;19.216;2022-12-18T09:41:55;6.30;99.90
25877;DHT22;13692;47.480;19.216;2022-12-18T09:44:32;6.40;99.90
25877;DHT22;13692;47.480;19.216;2022-12-18T09:49:46;6.30;99.90
25877;DHT22;13692;47.480;19.216;2022-12-18T09:52:21;6.40;99.90
25877;DHT22;13692;47.480;19.216;2022-12-18T09:54:55;6.50;99.90
25877;DHT22;13692;47.480;19.216;2022-12-18T09:57:24;6.60;99.90
25877;DHT22;13692;47.480;19.216;2022-12-18T09:59:56;6.70;99.90
25877;DHT22;13692;47.480;19.216;2022-12-18T10:02:26;6.80;99.90
25877;DHT22;13692;47.480;19.216;2022-12-18T10:05:14;6.80;99.90
25877;DHT22;13692;47.480;19.216;2022-12-18T10:08:02;6.80;99.90
25877;DHT22;13692;47.480;19.216;2022-12-18T10:10:39;6.80;99.90
25877;DHT22;13692;47.480;19.216;2022-12-18T10:13:44;6.80;99.90
25877;DHT22;13692;47.480;19.216;2022-12-18T10:16:33;6.80;99.90
25877;DHT22;13692;47.480;19.216;2022-12-18T10:19:18;6.60;99.90
25877;DHT22;13692;47.480;19.216;2022-12-18T10:26:47;5.90;99.90
25877;DHT22;13692;47.480;19.216;2022-12-18T10:29:16;5.70;99.90
25877;DHT22;13692;47.480;19.216;2022-12-18T10:31:43;5.40;99.90
25877;DHT22;13692;47.480;19.216;2022-12-18T10:34:11;5.20;99.90
25877;DHT22;13692;47.480;19.216;2022-12-18T10:36:38;5.00;99.90
25877;DHT22;13692;47.480;19.216;2022-12-18T10:39:35;4.90;99.90
25877;DHT22;13692;47.480;19.216;2022-12-18T10:42:18;4.80;99.90
25877;DHT22;13692;47.480;19.216;2022-12-18T10:45:06;4.70;99.90
25877;DHT22;13692;47.480;19.216;2022-12-18T10:47:35;4.60;99.90
25877;DHT22;13692;47.480;19.216;2022-12-18T10:50:03;4.50;99.90
25877;DHT22;13692;47.480;19.216;2022-12-18T10:52:30;4.40;99.90
25877;DHT22;13692;47.480;19.216;2022-12-18T10:55:01;4.20;99.90
25877;DHT22;13692;47.480;19.216;2022-12-18T10:57:35;4.10;99.90
25877;DHT22;13692;47.480;19.216;2022-12-18T11:00:29;4.20;99.90
25877;DHT22;13692;47.480;19.216;2022-12-18T11:02:57;4.00;99.90
25877;DHT22;13692;47.480;19.216;2022-12-18T11:05:32;3.90;99.90
25877;DHT22;13692;47.480;19.216;2022-12-18T11:08:00;3.90;99.90
25877;DHT22;13692;47.480;19.216;2022-12-18T11:10:37;3.90;99.90
25877;DHT22;13692;47.480;19.216;2022-12-18T11:13:26;4.00;99.90
25877;DHT22;13692;47.480;19.216;2022-12-18T11:15:55;4.10;99.90
25877;DHT22;13692;47.480;19.216;2022-12-18T11:18:35;4.20;99.90
25877;DHT22;13692;47.480;19.216;2022-12-18T11:21:11;4.30;99.90
25877;DHT22;13692;47.480;19.216;2022-12-18T11:26:15;4.50;99.90
25877;DHT22;13692;47.480;19.216;2022-12-18T11:29:10;4.50;99.90
25877;DHT22;13692;47.480;19.216;2022-12-18T11:31:43;4.50;99.90
25877;DHT22;13692;47.480;19.216;2022-12-18T11:34:26;4.50;99.90
25877;DHT22;13692;47.480;19.216;2022-12-18T11:36:58;4.40;99.90
25877;DHT22;13692;47.480;19.216;2022-12-18T11:39:42;4.50;99.90
25877;DHT22;13692;47.480;19.216;2022-12-18T11:48:04;4.50;99.90
25877;DHT22;13692;47.480;19.216;2022-12-18T11:53:03;4.50;99.90
25877;DHT22;13692;47.480;19.216;2022-12-18T12:15:47;4.30;99.90
25877;DHT22;13692;47.480;19.216;2022-12-18T12:40:24;4.60;99.90
25877;DHT22;13692;47.480;19.216;2022-12-18T12:43:40;4.70;99.90
25877;DHT22;13692;47.480;19.216;2022-12-18T12:46:18;4.70;99.90
25877;DHT22;13692;47.480;19.216;2022-12-18T12:48:52;4.60;99.90
25877;DHT22;13692;47.480;19.216;2022-12-18T12:51:21;4.70;99.90
25877;DHT22;13692;47.480;19.216;2022-12-18T12:53:49;4.60;99.90
25877;DHT22;13692;47.480;19.216;2022-12-18T12:56:19;4.70;99.90
25877;DHT22;13692;47.480;19.216;2022-12-18T13:01:47;4.70;99.90
25877;DHT22;13692;47.480;19.216;2022-12-18T13:07:20;4.60;99.90
25877;DHT22;13692;47.480;19.216;2022-12-18T13:12:56;4.50;99.90
25877;DHT22;13692;47.480;19.216;2022-12-18T13:18:18;4.50;99.90
25877;DHT22;13692;47.480;19.216;2022-12-18T13:23:35;4.30;99.90
25877;DHT22;13692;47.480;19.216;2022-12-18T13:31:15;4.30;99.90
25877;DHT22;13692;47.480;19.216;2022-12-18T13:34:19;4.30;99.90
25877;DHT22;13692;47.480;19.216;2022-12-18T13:36:57;4.30;99.90
25877;DHT22;13692;47.480;19.216;2022-12-18T13:39:43;4.30;99.90
25877;DHT22;13692;47.480;19.216;2022-12-18T13:44:57;4.20;99.90
25877;DHT22;13692;47.480;19.216;2022-12-18T13:47:33;4.20;99.90
25877;DHT22;13692;47.480;19.216;2022-12-18T13:50:11;4.20;99.90
25877;DHT22;13692;47.480;19.216;2022-12-18T13:52:48;4.10;99.90
25877;DHT22;13692;47.480;19.216;2022-12-18T13:55:17;4.10;99.90
25877;DHT22;13692;47.480;19.216;2022-12-18T13:57:45;4.00;99.90
25877;DHT22;13692;47.480;19.216;2022-12-18T14:02:50;3.90;99.90
25877;DHT22;13692;47.480;19.216;2022-12-18T14:05:32;3.80;99.90
25877;DHT22;13692;47.480;19.216;2022-12-18T14:08:05;3.80;99.90
25877;DHT22;13692;47.480;19.216;2022-12-18T14:10:35;3.80;99.90
25877;DHT22;13692;47.480;19.216;2022-12-18T14:13:26;3.80;99.90
25877;DHT22;13692;47.480;19.216;2022-12-18T14:15:56;3.60;99.90
25877;DHT22;13692;47.480;19.216;2022-12-18T14:18:42;3.50;99.90
25877;DHT22;13692;47.480;19.216;2022-12-18T14:21:26;3.40;99.90
25877;DHT22;13692;47.480;19.216;2022-12-18T14:26:45;3.40;99.90
25877;DHT22;13692;47.480;19.216;2022-12-18T14:29:26;3.30;99.90
25877;DHT22;13692;47.480;19.216;2022-12-18T14:34:40;3.20;99.90
25877;DHT22;13692;47.480;19.216;2022-12-18T14:37:11;3.10;99.90
25877;DHT22;13692;47.480;19.216;2022-12-18T14:39:39;3.10;99.90
25877;DHT22;13692;47.480;19.216;2022-12-18T14:42:10;3.00;99.90
25877;DHT22;13692;47.480;19.216;2022-12-18T14:44:38;2.90;99.90
25877;DHT22;13692;47.480;19.216;2022-12-18T14:47:24;2.80;99.90
25877;DHT22;13692;47.480;19.216;2022-12-18T14:49:51;2.80;99.90
25877;DHT22;13692;47.480;19.216;2022-12-18T14:52:29;2.80;99.90
25877;DHT22;13692;47.480;19.216;2022-12-18T14:54:58;2.70;99.90
25877;DHT22;13692;47.480;19.216;2022-12-18T14:57:34;2.60;99.90
25877;DHT22;13692;47.480;19.216;2022-12-18T15:00:07;2.40;99.90
25877;DHT22;13692;47.480;19.216;2022-12-18T15:02:42;2.30;99.90
25877;DHT22;13692;47.480;19.216;2022-12-18T15:07:44;2.00;99.90
25877;DHT22;13692;47.480;19.216;2022-12-18T15:12:49;1.80;99.90
25877;DHT22;13692;47.480;19.216;2022-12-18T15:20:54;1.40;99.90
25877;DHT22;13692;47.480;19.216;2022-12-18T15:23:38;1.30;99.90
25877;DHT22;13692;47.480;19.216;2022-12-18T15:26:14;1.20;99.90
25877;DHT22;13692;47.480;19.216;2022-12-18T15:28:58;1.20;99.90
25877;DHT22;13692;47.480;19.216;2022-12-18T15:31:34;1.10;99.90
25877;DHT22;13692;47.480;19.216;2022-12-18T15:34:11;1.00;99.90
25877;DHT22;13692;47.480;19.216;2022-12-18T15:36:42;0.90;99.90
25877;DHT22;13692;47.480;19.216;2022-12-18T15:39:12;0.90;99.90
25877;DHT22;13692;47.480;19.216;2022-12-18T15:41:40;0.80;99.90
25877;DHT22;13692;47.480;19.216;2022-12-18T15:44:28;0.80;99.90
25877;DHT22;13692;47.480;19.216;2022-12-18T15:46:56;0.80;99.90
25877;DHT22;13692;47.480;19.216;2022-12-18T15:49:23;0.70;99.90
25877;DHT22;13692;47.480;19.216;2022-12-18T15:51:57;0.60;99.90
25877;DHT22;13692;47.480;19.216;2022-12-18T15:54:26;0.60;99.90
25877;DHT22;13692;47.480;19.216;2022-12-18T15:57:31;0.50;99.90
25877;DHT22;13692;47.480;19.216;2022-12-18T16:00:02;0.50;99.90
25877;DHT22;13692;47.480;19.216;2022-12-18T16:02:30;0.40;99.90
25877;DHT22;13692;47.480;19.216;2022-12-18T16:04:57;0.40;99.90
25877;DHT22;13692;47.480;19.216;2022-12-18T16:07:24;0.30;99.90
25877;DHT22;13692;47.480;19.216;2022-12-18T16:09:56;0.30;99.90
25877;DHT22;13692;47.480;19.216;2022-12-18T16:12:28;0.20;99.90
25877;DHT22;13692;47.480;19.216;2022-12-18T16:14:56;0.20;99.90
25877;DHT22;13692;47.480;19.216;2022-12-18T16:17:24;0.10;99.90
25877;DHT22;13692;47.480;19.216;2022-12-18T16:19:52;0.10;99.90
25877;DHT22;13692;47.480;19.216;2022-12-18T16:22:24;0.10;99.90
25877;DHT22;13692;47.480;19.216;2022-12-18T16:24:54;0.00;99.90
25877;DHT22;13692;47.480;19.216;2022-12-18T16:27:23;0.00;99.90
25877;DHT22;13692;47.480;19.216;2022-12-18T16:29:51;0.00;99.90
25877;DHT22;13692;47.480;19.216;2022-12-18T16:32:20;0.00;99.90
25877;DHT22;13692;47.480;19.216;2022-12-18T16:34:49;0.00;99.90
25877;DHT22;13692;47.480;19.216;2022-12-18T16:37:17;-0.10;99.90
25877;DHT22;13692;47.480;19.216;2022-12-18T16:39:44;-0.10;99.90
25877;DHT22;13692;47.480;19.216;2022-12-18T16:42:15;-0.10;99.90
25877;DHT22;13692;47.480;19.216;2022-12-18T16:44:48;-0.10;99.90
25877;DHT22;13692;47.480;19.216;2022-12-18T16:47:16;-0.20;99.90
25877;DHT22;13692;47.480;19.216;2022-12-18T16:49:46;-0.20;99.90
25877;DHT22;13692;47.480;19.216;2022-12-18T16:52:19;-0.30;99.90
25877;DHT22;13692;47.480;19.216;2022-12-18T16:54:48;-0.30;99.90
25877;DHT22;13692;47.480;19.216;2022-12-18T16:57:18;-0.30;99.90
25877;DHT22;13692;47.480;19.216;2022-12-18T16:59:52;-0.30;99.90
25877;DHT22;13692;47.480;19.216;2022-12-18T17:02:22;-0.40;99.90
25877;DHT22;13692;47.480;19.216;2022-12-18T17:04:53;-0.30;99.90
25877;DHT22;13692;47.480;19.216;2022-12-18T17:07:21;-0.40;99.90
25877;DHT22;13692;47.480;19.216;2022-12-18T17:09:49;-0.40;99.90
25877;DHT22;13692;47.480;19.216;2022-12-18T17:12:19;-0.50;99.90
25877;DHT22;13692;47.480;19.216;2022-12-18T17:14:47;-0.50;99.90
25877;DHT22;13692;47.480;19.216;2022-12-18T17:17:16;-0.50;99.90
25877;DHT22;13692;47.480;19.216;2022-12-18T17:19:49;-0.60;99.90
25877;DHT22;13692;47.480;19.216;2022-12-18T17:22:18;-0.60;99.90
25877;DHT22;13692;47.480;19.216;2022-12-18T17:24:46;-0.60;99.90
25877;DHT22;13692;47.480;19.216;2022-12-18T17:27:15;-0.60;99.90
25877;DHT22;13692;47.480;19.216;2022-12-18T17:29:43;-0.70;99.90
25877;DHT22;13692;47.480;19.216;2022-12-18T17:32:15;-0.70;99.90
25877;DHT22;13692;47.480;19.216;2022-12-18T17:34:45;-0.70;99.90
25877;DHT22;13692;47.480;19.216;2022-12-18T17:37:13;-0.70;99.90
25877;DHT22;13692;47.480;19.216;2022-12-18T17:39:41;-0.80;99.90
25877;DHT22;13692;47.480;19.216;2022-12-18T17:42:09;-0.80;99.90
25877;DHT22;13692;47.480;19.216;2022-12-18T17:44:57;-0.80;99.90
25877;DHT22;13692;47.480;19.216;2022-12-18T17:47:25;-0.90;99.90
25877;DHT22;13692;47.480;19.216;2022-12-18T17:49:52;-1.00;99.90
25877;DHT22;13692;47.480;19.216;2022-12-18T17:52:21;-0.90;99.90
25877;DHT22;13692;47.480;19.216;2022-12-18T17:54:51;-1.00;99.90
25877;DHT22;13692;47.480;19.216;2022-12-18T17:57:18;-0.90;99.90
25877;DHT22;13692;47.480;19.216;2022-12-18T17:59:48;-1.00;99.90
25877;DHT22;13692;47.480;19.216;2022-12-18T18:02:16;-0.90;99.90
25877;DHT22;13692;47.480;19.216;2022-12-18T18:04:45;-1.00;99.90
25877;DHT22;13692;47.480;19.216;2022-12-18T18:07:17;-1.10;99.90